首页
METAR-TAF:

METAR-TAF

机场 :

腓特烈港机场

腓特烈港, 德国

纬度: 47-40N, 经度: 009-31E, 海拔: 416米

当前天气观测

该预报发布于29分钟前的13:20 UTC
风速13节,风向东北
温度 21°C
湿度 26%
气压 1027 hPa
能见度10公里或以上
1500米以下无云,无积雨云

METAR: EDNY 071320Z 04013KT CAVOK 21/01 Q1027

时间: 15:49 (13:49 UTC)

预报

该预报发布于2小时和49分钟前的11:00 UTC
预报有效从07日的 12点(UTC)到 08日的 12点(UTC)
风速9节,风向东北
能见度10公里或以上
1500米以下无云,无积雨云
成为
从 07日的 18点(UTC)到 07日的 20点(UTC)
风速4节,风向北转东北
成为
从 08日的 08点(UTC)到 08日的 10点(UTC)
风速5节,风向西

TAF: EDNY 071100Z 0712/0812 05009KT CAVOK BECMG 0718/0720 03004KT BECMG 0808/0810 26005KT

超过4000个机场的气象观测和天气预报(METAR&TAF报告)。

可查询的气象台以黄色和红色小点在地图上表示。

将鼠标移到小点上方,可查看气象台名称。

然后点击查看天气观测和预报。

如需切换地图:点击带黑十字的绿色按钮放大地图;点击带横线的绿色按钮缩小地图;或者点击绿色箭头查看邻近地区的地图。


METAR-TAF: